sensor_id;sensor_type;location;lat;lon;timestamp;P1;durP1;ratioP1;P2;durP2;ratioP2
56399;SDS011;42298;53.638;9.876;2023-08-24T00:01:25;13.82;;;8.40;;
56399;SDS011;42298;53.638;9.876;2023-08-24T00:03:50;15.32;;;8.70;;
56399;SDS011;42298;53.638;9.876;2023-08-24T00:06:16;17.30;;;9.93;;
56399;SDS011;42298;53.638;9.876;2023-08-24T00:08:41;12.43;;;8.65;;
56399;SDS011;42298;53.638;9.876;2023-08-24T00:11:07;14.93;;;8.30;;
56399;SDS011;42298;53.638;9.876;2023-08-24T00:13:32;14.02;;;9.57;;
56399;SDS011;42298;53.638;9.876;2023-08-24T00:15:58;17.42;;;9.30;;
56399;SDS011;42298;53.638;9.876;2023-08-24T00:18:24;14.90;;;7.90;;
56399;SDS011;42298;53.638;9.876;2023-08-24T00:20:50;12.40;;;8.48;;
56399;SDS011;42298;53.638;9.876;2023-08-24T00:23:16;14.02;;;8.43;;
56399;SDS011;42298;53.638;9.876;2023-08-24T00:25:42;14.70;;;9.15;;
56399;SDS011;42298;53.638;9.876;2023-08-24T00:28:07;14.73;;;8.70;;
56399;SDS011;42298;53.638;9.876;2023-08-24T00:30:33;17.17;;;9.88;;
56399;SDS011;42298;53.638;9.876;2023-08-24T00:32:58;18.38;;;11.45;;
56399;SDS011;42298;53.638;9.876;2023-08-24T00:35:24;13.57;;;9.00;;
56399;SDS011;42298;53.638;9.876;2023-08-24T00:37:49;14.80;;;9.55;;
56399;SDS011;42298;53.638;9.876;2023-08-24T00:40:15;15.00;;;8.70;;
56399;SDS011;42298;53.638;9.876;2023-08-24T00:42:42;14.63;;;8.40;;
56399;SDS011;42298;53.638;9.876;2023-08-24T00:45:11;14.13;;;8.50;;
56399;SDS011;42298;53.638;9.876;2023-08-24T00:47:37;15.02;;;8.43;;
56399;SDS011;42298;53.638;9.876;2023-08-24T00:50:05;12.77;;;7.85;;
56399;SDS011;42298;53.638;9.876;2023-08-24T00:52:31;15.93;;;9.23;;
56399;SDS011;42298;53.638;9.876;2023-08-24T00:54:58;15.32;;;9.50;;
56399;SDS011;42298;53.638;9.876;2023-08-24T00:57:25;16.10;;;10.50;;
56399;SDS011;42298;53.638;9.876;2023-08-24T00:59:52;16.80;;;10.25;;
56399;SDS011;42298;53.638;9.876;2023-08-24T01:02:17;16.60;;;9.63;;
56399;SDS011;42298;53.638;9.876;2023-08-24T01:04:43;15.90;;;10.48;;
56399;SDS011;42298;53.638;9.876;2023-08-24T01:07:09;16.10;;;10.23;;
56399;SDS011;42298;53.638;9.876;2023-08-24T01:09:35;15.38;;;9.63;;
56399;SDS011;42298;53.638;9.876;2023-08-24T01:15:13;16.40;;;10.95;;
56399;SDS011;42298;53.638;9.876;2023-08-24T01:18:00;17.00;;;10.57;;
56399;SDS011;42298;53.638;9.876;2023-08-24T01:20:30;15.13;;;9.88;;
56399;SDS011;42298;53.638;9.876;2023-08-24T01:23:07;14.05;;;9.57;;
56399;SDS011;42298;53.638;9.876;2023-08-24T01:28:22;14.98;;;9.63;;
56399;SDS011;42298;53.638;9.876;2023-08-24T01:30:48;14.57;;;9.38;;
56399;SDS011;42298;53.638;9.876;2023-08-24T01:33:14;18.25;;;11.13;;
56399;SDS011;42298;53.638;9.876;2023-08-24T01:35:40;13.85;;;9.07;;
56399;SDS011;42298;53.638;9.876;2023-08-24T01:38:06;14.60;;;9.05;;
56399;SDS011;42298;53.638;9.876;2023-08-24T01:40:36;14.20;;;9.70;;
56399;SDS011;42298;53.638;9.876;2023-08-24T01:43:10;14.82;;;9.68;;
56399;SDS011;42298;53.638;9.876;2023-08-24T01:45:39;13.40;;;9.45;;
56399;SDS011;42298;53.638;9.876;2023-08-24T01:48:07;16.98;;;10.43;;
56399;SDS011;42298;53.638;9.876;2023-08-24T01:50:34;15.27;;;10.30;;
56399;SDS011;42298;53.638;9.876;2023-08-24T01:53:00;14.75;;;9.35;;
56399;SDS011;42298;53.638;9.876;2023-08-24T01:55:27;15.40;;;10.00;;
56399;SDS011;42298;53.638;9.876;2023-08-24T01:57:52;14.95;;;9.63;;
56399;SDS011;42298;53.638;9.876;2023-08-24T02:00:20;14.85;;;10.18;;
56399;SDS011;42298;53.638;9.876;2023-08-24T02:02:45;14.50;;;9.23;;
56399;SDS011;42298;53.638;9.876;2023-08-24T02:05:12;14.65;;;9.23;;
56399;SDS011;42298;53.638;9.876;2023-08-24T02:07:38;16.00;;;9.90;;
56399;SDS011;42298;53.638;9.876;2023-08-24T02:10:04;14.75;;;9.50;;
56399;SDS011;42298;53.638;9.876;2023-08-24T02:12:29;13.27;;;8.70;;
56399;SDS011;42298;53.638;9.876;2023-08-24T02:14:54;13.13;;;7.70;;
56399;SDS011;42298;53.638;9.876;2023-08-24T02:17:21;12.27;;;7.50;;
56399;SDS011;42298;53.638;9.876;2023-08-24T02:19:46;13.77;;;8.90;;
56399;SDS011;42298;53.638;9.876;2023-08-24T02:22:12;13.35;;;8.65;;
56399;SDS011;42298;53.638;9.876;2023-08-24T02:24:37;15.10;;;9.07;;
56399;SDS011;42298;53.638;9.876;2023-08-24T02:27:02;14.60;;;8.65;;
56399;SDS011;42298;53.638;9.876;2023-08-24T02:29:28;12.50;;;8.43;;
56399;SDS011;42298;53.638;9.876;2023-08-24T02:31:53;13.00;;;8.07;;
56399;SDS011;42298;53.638;9.876;2023-08-24T02:34:19;11.88;;;7.78;;
56399;SDS011;42298;53.638;9.876;2023-08-24T02:36:44;11.95;;;7.00;;
56399;SDS011;42298;53.638;9.876;2023-08-24T02:39:09;13.63;;;7.32;;
56399;SDS011;42298;53.638;9.876;2023-08-24T02:41:35;12.55;;;8.10;;
56399;SDS011;42298;53.638;9.876;2023-08-24T02:44:02;13.18;;;7.68;;
56399;SDS011;42298;53.638;9.876;2023-08-24T02:46:27;13.80;;;7.85;;
56399;SDS011;42298;53.638;9.876;2023-08-24T02:48:53;13.70;;;8.07;;
56399;SDS011;42298;53.638;9.876;2023-08-24T02:51:20;11.05;;;7.70;;
56399;SDS011;42298;53.638;9.876;2023-08-24T02:53:46;12.52;;;7.50;;
56399;SDS011;42298;53.638;9.876;2023-08-24T02:56:12;10.80;;;7.28;;
56399;SDS011;42298;53.638;9.876;2023-08-24T02:58:38;10.77;;;6.60;;
56399;SDS011;42298;53.638;9.876;2023-08-24T03:01:06;13.25;;;7.78;;
56399;SDS011;42298;53.638;9.876;2023-08-24T03:03:32;12.32;;;6.80;;
56399;SDS011;42298;53.638;9.876;2023-08-24T03:06:02;14.20;;;7.40;;
56399;SDS011;42298;53.638;9.876;2023-08-24T03:08:30;12.73;;;7.50;;
56399;SDS011;42298;53.638;9.876;2023-08-24T03:10:57;13.35;;;7.03;;
56399;SDS011;42298;53.638;9.876;2023-08-24T03:13:23;11.85;;;7.30;;
56399;SDS011;42298;53.638;9.876;2023-08-24T03:15:48;12.02;;;7.65;;
56399;SDS011;42298;53.638;9.876;2023-08-24T03:18:15;14.48;;;7.90;;
56399;SDS011;42298;53.638;9.876;2023-08-24T03:20:41;12.43;;;7.65;;
56399;SDS011;42298;53.638;9.876;2023-08-24T03:23:07;13.23;;;8.40;;
56399;SDS011;42298;53.638;9.876;2023-08-24T03:25:35;12.75;;;8.18;;
56399;SDS011;42298;53.638;9.876;2023-08-24T03:28:02;13.45;;;7.85;;
56399;SDS011;42298;53.638;9.876;2023-08-24T03:30:27;13.30;;;8.27;;
56399;SDS011;42298;53.638;9.876;2023-08-24T03:32:54;12.45;;;8.63;;
56399;SDS011;42298;53.638;9.876;2023-08-24T03:35:19;12.10;;;8.10;;
56399;SDS011;42298;53.638;9.876;2023-08-24T03:37:45;11.95;;;7.95;;
56399;SDS011;42298;53.638;9.876;2023-08-24T03:40:11;14.07;;;9.50;;
56399;SDS011;42298;53.638;9.876;2023-08-24T03:42:37;14.52;;;8.45;;
56399;SDS011;42298;53.638;9.876;2023-08-24T03:45:02;14.27;;;9.20;;
56399;SDS011;42298;53.638;9.876;2023-08-24T03:47:28;11.57;;;7.70;;
56399;SDS011;42298;53.638;9.876;2023-08-24T03:49:53;13.10;;;8.77;;
56399;SDS011;42298;53.638;9.876;2023-08-24T03:52:19;13.80;;;7.72;;
56399;SDS011;42298;53.638;9.876;2023-08-24T03:54:44;12.68;;;6.78;;
56399;SDS011;42298;53.638;9.876;2023-08-24T03:57:11;13.07;;;8.02;;
56399;SDS011;42298;53.638;9.876;2023-08-24T03:59:36;11.27;;;6.45;;
56399;SDS011;42298;53.638;9.876;2023-08-24T04:02:01;13.35;;;7.63;;
56399;SDS011;42298;53.638;9.876;2023-08-24T04:04:28;10.85;;;6.75;;
56399;SDS011;42298;53.638;9.876;2023-08-24T04:06:53;13.80;;;7.43;;
56399;SDS011;42298;53.638;9.876;2023-08-24T04:09:18;12.52;;;7.22;;
56399;SDS011;42298;53.638;9.876;2023-08-24T04:11:44;10.63;;;6.93;;
56399;SDS011;42298;53.638;9.876;2023-08-24T04:14:09;13.02;;;7.88;;
56399;SDS011;42298;53.638;9.876;2023-08-24T04:16:34;16.63;;;7.80;;
56399;SDS011;42298;53.638;9.876;2023-08-24T04:19:00;11.95;;;6.95;;
56399;SDS011;42298;53.638;9.876;2023-08-24T04:21:25;13.18;;;7.65;;
56399;SDS011;42298;53.638;9.876;2023-08-24T04:23:50;14.25;;;8.20;;
56399;SDS011;42298;53.638;9.876;2023-08-24T04:26:15;14.00;;;8.93;;
56399;SDS011;42298;53.638;9.876;2023-08-24T04:28:41;14.32;;;9.90;;
56399;SDS011;42298;53.638;9.876;2023-08-24T04:31:06;11.98;;;6.88;;
56399;SDS011;42298;53.638;9.876;2023-08-24T04:33:32;13.23;;;7.93;;
56399;SDS011;42298;53.638;9.876;2023-08-24T04:35:57;12.90;;;9.23;;
56399;SDS011;42298;53.638;9.876;2023-08-24T04:38:23;14.48;;;8.60;;
56399;SDS011;42298;53.638;9.876;2023-08-24T04:40:49;11.95;;;7.50;;
56399;SDS011;42298;53.638;9.876;2023-08-24T04:43:16;13.60;;;9.00;;
56399;SDS011;42298;53.638;9.876;2023-08-24T04:45:42;14.52;;;8.60;;
56399;SDS011;42298;53.638;9.876;2023-08-24T04:48:07;13.38;;;8.15;;
56399;SDS011;42298;53.638;9.876;2023-08-24T04:50:32;12.38;;;7.78;;
56399;SDS011;42298;53.638;9.876;2023-08-24T04:52:58;14.27;;;8.68;;
56399;SDS011;42298;53.638;9.876;2023-08-24T04:55:23;12.65;;;8.20;;
56399;SDS011;42298;53.638;9.876;2023-08-24T04:57:48;17.30;;;10.00;;
56399;SDS011;42298;53.638;9.876;2023-08-24T05:00:14;14.00;;;9.15;;
56399;SDS011;42298;53.638;9.876;2023-08-24T05:02:44;13.18;;;8.43;;
56399;SDS011;42298;53.638;9.876;2023-08-24T05:05:12;15.63;;;9.07;;
56399;SDS011;42298;53.638;9.876;2023-08-24T05:07:40;13.55;;;8.88;;
56399;SDS011;42298;53.638;9.876;2023-08-24T05:10:06;12.50;;;8.88;;
56399;SDS011;42298;53.638;9.876;2023-08-24T05:12:32;13.70;;;9.13;;
56399;SDS011;42298;53.638;9.876;2023-08-24T05:15:00;14.70;;;9.52;;
56399;SDS011;42298;53.638;9.876;2023-08-24T05:17:26;13.82;;;9.18;;
56399;SDS011;42298;53.638;9.876;2023-08-24T05:19:53;13.10;;;8.38;;
56399;SDS011;42298;53.638;9.876;2023-08-24T05:22:19;13.15;;;9.25;;
56399;SDS011;42298;53.638;9.876;2023-08-24T05:24:44;15.25;;;10.32;;
56399;SDS011;42298;53.638;9.876;2023-08-24T05:27:10;13.32;;;8.82;;
56399;SDS011;42298;53.638;9.876;2023-08-24T05:29:35;17.23;;;11.52;;
56399;SDS011;42298;53.638;9.876;2023-08-24T05:32:00;15.13;;;10.13;;
56399;SDS011;42298;53.638;9.876;2023-08-24T05:34:25;17.42;;;11.35;;
56399;SDS011;42298;53.638;9.876;2023-08-24T05:36:51;17.40;;;12.65;;
56399;SDS011;42298;53.638;9.876;2023-08-24T05:39:16;15.73;;;10.88;;
56399;SDS011;42298;53.638;9.876;2023-08-24T05:41:41;17.98;;;11.80;;
56399;SDS011;42298;53.638;9.876;2023-08-24T05:44:10;21.30;;;12.23;;
56399;SDS011;42298;53.638;9.876;2023-08-24T05:46:35;15.85;;;9.80;;
56399;SDS011;42298;53.638;9.876;2023-08-24T05:49:00;14.15;;;9.30;;
56399;SDS011;42298;53.638;9.876;2023-08-24T05:51:27;14.93;;;8.68;;
56399;SDS011;42298;53.638;9.876;2023-08-24T05:53:53;13.10;;;7.57;;
56399;SDS011;42298;53.638;9.876;2023-08-24T05:56:24;12.73;;;7.47;;
56399;SDS011;42298;53.638;9.876;2023-08-24T05:58:49;13.70;;;7.80;;
56399;SDS011;42298;53.638;9.876;2023-08-24T06:01:15;12.45;;;7.53;;
56399;SDS011;42298;53.638;9.876;2023-08-24T06:03:40;11.73;;;6.13;;
56399;SDS011;42298;53.638;9.876;2023-08-24T06:06:06;12.32;;;8.40;;
56399;SDS011;42298;53.638;9.876;2023-08-24T06:08:33;14.68;;;7.72;;
56399;SDS011;42298;53.638;9.876;2023-08-24T06:10:58;11.88;;;6.65;;
56399;SDS011;42298;53.638;9.876;2023-08-24T06:13:24;13.07;;;6.95;;
56399;SDS011;42298;53.638;9.876;2023-08-24T06:15:49;11.98;;;6.55;;
56399;SDS011;42298;53.638;9.876;2023-08-24T06:18:14;11.05;;;5.57;;
56399;SDS011;42298;53.638;9.876;2023-08-24T06:20:40;14.00;;;7.05;;
56399;SDS011;42298;53.638;9.876;2023-08-24T06:23:06;14.32;;;7.55;;
56399;SDS011;42298;53.638;9.876;2023-08-24T06:25:32;13.27;;;7.07;;
56399;SDS011;42298;53.638;9.876;2023-08-24T06:27:58;10.00;;;5.38;;
56399;SDS011;42298;53.638;9.876;2023-08-24T06:30:24;10.80;;;6.05;;
56399;SDS011;42298;53.638;9.876;2023-08-24T06:32:53;10.85;;;5.05;;
56399;SDS011;42298;53.638;9.876;2023-08-24T06:35:18;8.50;;;3.63;;
56399;SDS011;42298;53.638;9.876;2023-08-24T06:37:44;6.07;;;3.30;;
56399;SDS011;42298;53.638;9.876;2023-08-24T06:40:09;8.93;;;2.20;;
56399;SDS011;42298;53.638;9.876;2023-08-24T06:42:35;6.60;;;3.05;;
56399;SDS011;42298;53.638;9.876;2023-08-24T06:45:01;6.70;;;2.67;;
56399;SDS011;42298;53.638;9.876;2023-08-24T06:47:26;6.57;;;2.75;;
56399;SDS011;42298;53.638;9.876;2023-08-24T06:49:52;7.70;;;2.50;;
56399;SDS011;42298;53.638;9.876;2023-08-24T06:52:18;7.18;;;2.45;;
56399;SDS011;42298;53.638;9.876;2023-08-24T06:54:44;6.60;;;2.53;;
56399;SDS011;42298;53.638;9.876;2023-08-24T06:57:09;5.28;;;2.53;;
56399;SDS011;42298;53.638;9.876;2023-08-24T06:59:35;5.63;;;2.03;;
56399;SDS011;42298;53.638;9.876;2023-08-24T07:02:00;6.60;;;2.00;;
56399;SDS011;42298;53.638;9.876;2023-08-24T07:04:26;4.43;;;2.20;;
56399;SDS011;42298;53.638;9.876;2023-08-24T07:06:52;6.20;;;2.13;;
56399;SDS011;42298;53.638;9.876;2023-08-24T07:09:17;5.28;;;1.80;;
56399;SDS011;42298;53.638;9.876;2023-08-24T07:11:43;7.88;;;2.50;;
56399;SDS011;42298;53.638;9.876;2023-08-24T07:14:09;6.35;;;2.40;;
56399;SDS011;42298;53.638;9.876;2023-08-24T07:16:34;6.90;;;2.90;;
56399;SDS011;42298;53.638;9.876;2023-08-24T07:18:59;5.43;;;2.65;;
56399;SDS011;42298;53.638;9.876;2023-08-24T07:21:25;7.47;;;2.50;;
56399;SDS011;42298;53.638;9.876;2023-08-24T07:23:50;5.22;;;2.00;;
56399;SDS011;42298;53.638;9.876;2023-08-24T07:26:15;4.45;;;1.80;;
56399;SDS011;42298;53.638;9.876;2023-08-24T07:28:41;5.55;;;2.00;;
56399;SDS011;42298;53.638;9.876;2023-08-24T07:31:07;5.45;;;1.83;;
56399;SDS011;42298;53.638;9.876;2023-08-24T07:33:37;6.32;;;2.05;;
56399;SDS011;42298;53.638;9.876;2023-08-24T07:36:05;6.60;;;2.17;;
56399;SDS011;42298;53.638;9.876;2023-08-24T07:38:31;5.55;;;1.80;;
56399;SDS011;42298;53.638;9.876;2023-08-24T07:40:58;4.25;;;1.65;;
56399;SDS011;42298;53.638;9.876;2023-08-24T07:43:29;3.33;;;1.85;;
56399;SDS011;42298;53.638;9.876;2023-08-24T07:45:55;3.83;;;1.45;;
56399;SDS011;42298;53.638;9.876;2023-08-24T07:48:20;6.47;;;1.70;;
56399;SDS011;42298;53.638;9.876;2023-08-24T07:50:45;4.63;;;1.65;;
56399;SDS011;42298;53.638;9.876;2023-08-24T07:53:11;6.30;;;1.80;;
56399;SDS011;42298;53.638;9.876;2023-08-24T07:55:36;4.75;;;1.77;;
56399;SDS011;42298;53.638;9.876;2023-08-24T07:58:02;4.78;;;1.70;;
56399;SDS011;42298;53.638;9.876;2023-08-24T08:00:28;6.30;;;2.10;;
56399;SDS011;42298;53.638;9.876;2023-08-24T08:02:54;6.00;;;1.88;;
56399;SDS011;42298;53.638;9.876;2023-08-24T08:05:19;4.82;;;2.00;;
56399;SDS011;42298;53.638;9.876;2023-08-24T08:07:45;4.35;;;1.55;;
56399;SDS011;42298;53.638;9.876;2023-08-24T08:10:10;6.40;;;1.42;;
56399;SDS011;42298;53.638;9.876;2023-08-24T08:12:35;5.65;;;1.90;;
56399;SDS011;42298;53.638;9.876;2023-08-24T08:15:01;4.78;;;1.60;;
56399;SDS011;42298;53.638;9.876;2023-08-24T08:17:27;5.82;;;1.55;;
56399;SDS011;42298;53.638;9.876;2023-08-24T08:19:59;4.45;;;1.65;;
56399;SDS011;42298;53.638;9.876;2023-08-24T08:22:24;5.88;;;1.80;;
56399;SDS011;42298;53.638;9.876;2023-08-24T08:24:53;3.60;;;1.55;;
56399;SDS011;42298;53.638;9.876;2023-08-24T08:27:24;5.93;;;2.00;;
56399;SDS011;42298;53.638;9.876;2023-08-24T08:29:50;3.90;;;1.70;;
56399;SDS011;42298;53.638;9.876;2023-08-24T08:32:15;3.97;;;1.70;;
56399;SDS011;42298;53.638;9.876;2023-08-24T08:34:42;5.90;;;1.80;;
56399;SDS011;42298;53.638;9.876;2023-08-24T08:37:07;4.68;;;1.85;;
56399;SDS011;42298;53.638;9.876;2023-08-24T08:39:32;9.70;;;2.63;;
56399;SDS011;42298;53.638;9.876;2023-08-24T08:41:59;6.57;;;2.45;;
56399;SDS011;42298;53.638;9.876;2023-08-24T08:44:25;5.38;;;2.05;;
56399;SDS011;42298;53.638;9.876;2023-08-24T08:46:56;5.75;;;2.10;;
56399;SDS011;42298;53.638;9.876;2023-08-24T08:49:22;19.45;;;5.07;;
56399;SDS011;42298;53.638;9.876;2023-08-24T08:51:48;5.28;;;2.17;;
56399;SDS011;42298;53.638;9.876;2023-08-24T08:54:16;5.80;;;2.00;;
56399;SDS011;42298;53.638;9.876;2023-08-24T08:56:41;9.23;;;2.75;;
56399;SDS011;42298;53.638;9.876;2023-08-24T08:59:08;6.85;;;2.42;;
56399;SDS011;42298;53.638;9.876;2023-08-24T09:01:36;8.73;;;2.17;;
56399;SDS011;42298;53.638;9.876;2023-08-24T09:04:05;6.80;;;2.50;;
56399;SDS011;42298;53.638;9.876;2023-08-24T09:06:32;5.80;;;2.15;;
56399;SDS011;42298;53.638;9.876;2023-08-24T09:08:59;9.93;;;2.35;;
56399;SDS011;42298;53.638;9.876;2023-08-24T09:11:25;6.20;;;2.05;;
56399;SDS011;42298;53.638;9.876;2023-08-24T09:13:51;9.02;;;2.30;;
56399;SDS011;42298;53.638;9.876;2023-08-24T09:16:16;6.93;;;2.53;;
56399;SDS011;42298;53.638;9.876;2023-08-24T09:18:46;5.78;;;2.20;;
56399;SDS011;42298;53.638;9.876;2023-08-24T09:21:14;6.10;;;2.40;;
56399;SDS011;42298;53.638;9.876;2023-08-24T09:23:53;4.88;;;2.38;;
56399;SDS011;42298;53.638;9.876;2023-08-24T09:26:29;4.78;;;2.30;;
56399;SDS011;42298;53.638;9.876;2023-08-24T09:28:56;7.50;;;2.75;;
56399;SDS011;42298;53.638;9.876;2023-08-24T09:31:22;8.45;;;2.20;;
56399;SDS011;42298;53.638;9.876;2023-08-24T09:33:48;9.35;;;2.80;;
56399;SDS011;42298;53.638;9.876;2023-08-24T09:36:14;7.00;;;2.70;;
56399;SDS011;42298;53.638;9.876;2023-08-24T09:38:45;7.78;;;2.70;;
56399;SDS011;42298;53.638;9.876;2023-08-24T09:41:15;8.80;;;2.65;;
56399;SDS011;42298;53.638;9.876;2023-08-24T09:43:40;9.10;;;2.80;;
56399;SDS011;42298;53.638;9.876;2023-08-24T09:46:06;8.00;;;3.05;;
56399;SDS011;42298;53.638;9.876;2023-08-24T09:48:33;7.50;;;2.60;;
56399;SDS011;42298;53.638;9.876;2023-08-24T09:50:58;6.40;;;2.38;;
56399;SDS011;42298;53.638;9.876;2023-08-24T09:53:28;8.27;;;2.60;;
56399;SDS011;42298;53.638;9.876;2023-08-24T09:56:00;6.53;;;2.15;;
56399;SDS011;42298;53.638;9.876;2023-08-24T09:58:27;7.35;;;2.20;;
56399;SDS011;42298;53.638;9.876;2023-08-24T10:00:53;6.72;;;2.53;;
56399;SDS011;42298;53.638;9.876;2023-08-24T10:03:20;6.75;;;2.53;;
56399;SDS011;42298;53.638;9.876;2023-08-24T10:05:47;6.22;;;2.05;;
56399;SDS011;42298;53.638;9.876;2023-08-24T10:08:22;7.15;;;2.47;;
56399;SDS011;42298;53.638;9.876;2023-08-24T10:10:52;4.53;;;2.13;;
56399;SDS011;42298;53.638;9.876;2023-08-24T10:13:21;7.85;;;2.63;;
56399;SDS011;42298;53.638;9.876;2023-08-24T10:16:02;6.93;;;2.45;;
56399;SDS011;42298;53.638;9.876;2023-08-24T10:18:29;8.57;;;3.03;;
56399;SDS011;42298;53.638;9.876;2023-08-24T10:20:55;6.50;;;2.90;;
56399;SDS011;42298;53.638;9.876;2023-08-24T10:23:21;5.45;;;2.47;;
56399;SDS011;42298;53.638;9.876;2023-08-24T10:25:47;9.07;;;2.63;;
56399;SDS011;42298;53.638;9.876;2023-08-24T10:28:16;8.52;;;2.85;;
56399;SDS011;42298;53.638;9.876;2023-08-24T10:30:43;8.23;;;3.30;;
56399;SDS011;42298;53.638;9.876;2023-08-24T10:33:11;7.93;;;3.00;;
56399;SDS011;42298;53.638;9.876;2023-08-24T10:35:38;8.70;;;3.20;;
56399;SDS011;42298;53.638;9.876;2023-08-24T10:38:05;8.25;;;3.30;;
56399;SDS011;42298;53.638;9.876;2023-08-24T10:40:34;7.43;;;3.20;;
56399;SDS011;42298;53.638;9.876;2023-08-24T10:43:03;8.98;;;2.92;;
56399;SDS011;42298;53.638;9.876;2023-08-24T10:48:28;6.90;;;3.00;;
56399;SDS011;42298;53.638;9.876;2023-08-24T10:53:38;9.48;;;3.35;;
56399;SDS011;42298;53.638;9.876;2023-08-24T10:56:12;11.48;;;3.55;;
56399;SDS011;42298;53.638;9.876;2023-08-24T10:58:38;8.45;;;3.40;;
56399;SDS011;42298;53.638;9.876;2023-08-24T11:01:03;8.07;;;3.40;;
56399;SDS011;42298;53.638;9.876;2023-08-24T11:03:37;8.32;;;3.08;;
56399;SDS011;42298;53.638;9.876;2023-08-24T11:06:16;8.38;;;3.45;;
56399;SDS011;42298;53.638;9.876;2023-08-24T11:08:45;8.05;;;3.08;;
56399;SDS011;42298;53.638;9.876;2023-08-24T11:11:18;5.32;;;2.83;;
56399;SDS011;42298;53.638;9.876;2023-08-24T11:16:55;6.07;;;2.80;;
56399;SDS011;42298;53.638;9.876;2023-08-24T11:19:22;7.82;;;2.80;;
56399;SDS011;42298;53.638;9.876;2023-08-24T11:21:48;5.95;;;2.70;;
56399;SDS011;42298;53.638;9.876;2023-08-24T11:24:13;5.90;;;2.72;;
56399;SDS011;42298;53.638;9.876;2023-08-24T11:29:12;4.88;;;2.28;;
56399;SDS011;42298;53.638;9.876;2023-08-24T11:31:38;10.18;;;2.83;;
56399;SDS011;42298;53.638;9.876;2023-08-24T11:34:04;9.82;;;2.55;;
56399;SDS011;42298;53.638;9.876;2023-08-24T11:36:30;5.05;;;2.58;;
56399;SDS011;42298;53.638;9.876;2023-08-24T11:38:57;6.85;;;2.55;;
56399;SDS011;42298;53.638;9.876;2023-08-24T11:41:23;7.05;;;2.45;;
56399;SDS011;42298;53.638;9.876;2023-08-24T11:43:49;6.38;;;2.53;;
56399;SDS011;42298;53.638;9.876;2023-08-24T11:46:23;6.78;;;2.78;;
56399;SDS011;42298;53.638;9.876;2023-08-24T11:48:49;11.43;;;3.17;;
56399;SDS011;42298;53.638;9.876;2023-08-24T11:51:14;5.50;;;2.55;;
56399;SDS011;42298;53.638;9.876;2023-08-24T11:53:41;6.80;;;2.45;;
56399;SDS011;42298;53.638;9.876;2023-08-24T11:56:11;8.05;;;2.40;;
56399;SDS011;42298;53.638;9.876;2023-08-24T11:58:40;5.47;;;2.20;;
56399;SDS011;42298;53.638;9.876;2023-08-24T12:01:08;6.13;;;2.65;;
56399;SDS011;42298;53.638;9.876;2023-08-24T12:03:34;5.47;;;2.45;;
56399;SDS011;42298;53.638;9.876;2023-08-24T12:06:02;6.25;;;2.70;;
56399;SDS011;42298;53.638;9.876;2023-08-24T12:08:37;6.47;;;2.47;;
56399;SDS011;42298;53.638;9.876;2023-08-24T12:11:09;6.13;;;2.38;;
56399;SDS011;42298;53.638;9.876;2023-08-24T12:13:35;6.22;;;2.20;;
56399;SDS011;42298;53.638;9.876;2023-08-24T12:16:01;6.05;;;2.65;;
56399;SDS011;42298;53.638;9.876;2023-08-24T12:18:28;7.13;;;2.60;;
56399;SDS011;42298;53.638;9.876;2023-08-24T12:20:53;5.53;;;2.40;;
56399;SDS011;42298;53.638;9.876;2023-08-24T12:23:18;8.07;;;2.70;;
56399;SDS011;42298;53.638;9.876;2023-08-24T12:25:44;8.50;;;2.30;;
56399;SDS011;42298;53.638;9.876;2023-08-24T12:28:10;8.13;;;2.67;;
56399;SDS011;42298;53.638;9.876;2023-08-24T12:30:49;5.40;;;2.47;;
56399;SDS011;42298;53.638;9.876;2023-08-24T12:33:22;7.20;;;2.97;;
56399;SDS011;42298;53.638;9.876;2023-08-24T12:35:52;7.22;;;2.40;;
56399;SDS011;42298;53.638;9.876;2023-08-24T12:38:19;8.90;;;2.60;;
56399;SDS011;42298;53.638;9.876;2023-08-24T12:40:44;9.50;;;2.97;;
56399;SDS011;42298;53.638;9.876;2023-08-24T12:43:10;9.30;;;2.90;;
56399;SDS011;42298;53.638;9.876;2023-08-24T12:45:35;8.68;;;3.00;;
56399;SDS011;42298;53.638;9.876;2023-08-24T12:48:02;8.27;;;3.25;;
56399;SDS011;42298;53.638;9.876;2023-08-24T12:50:34;8.68;;;2.67;;
56399;SDS011;42298;53.638;9.876;2023-08-24T12:53:00;9.50;;;3.30;;
56399;SDS011;42298;53.638;9.876;2023-08-24T12:55:27;8.77;;;3.08;;
56399;SDS011;42298;53.638;9.876;2023-08-24T12:57:52;6.63;;;2.72;;
56399;SDS011;42298;53.638;9.876;2023-08-24T13:00:18;9.68;;;3.10;;
56399;SDS011;42298;53.638;9.876;2023-08-24T13:02:44;7.63;;;2.90;;
56399;SDS011;42298;53.638;9.876;2023-08-24T13:05:10;8.50;;;3.00;;
56399;SDS011;42298;53.638;9.876;2023-08-24T13:07:35;7.75;;;3.03;;
56399;SDS011;42298;53.638;9.876;2023-08-24T13:10:01;8.18;;;3.15;;
56399;SDS011;42298;53.638;9.876;2023-08-24T13:12:28;8.85;;;3.47;;
56399;SDS011;42298;53.638;9.876;2023-08-24T13:14:53;5.20;;;2.80;;
56399;SDS011;42298;53.638;9.876;2023-08-24T13:17:19;8.30;;;3.45;;
56399;SDS011;42298;53.638;9.876;2023-08-24T13:19:44;8.82;;;3.67;;
56399;SDS011;42298;53.638;9.876;2023-08-24T13:22:10;8.52;;;2.92;;
56399;SDS011;42298;53.638;9.876;2023-08-24T13:24:35;8.65;;;3.45;;
56399;SDS011;42298;53.638;9.876;2023-08-24T13:27:01;7.30;;;3.42;;
56399;SDS011;42298;53.638;9.876;2023-08-24T13:29:27;8.57;;;3.85;;
56399;SDS011;42298;53.638;9.876;2023-08-24T13:31:53;11.25;;;4.10;;
56399;SDS011;42298;53.638;9.876;2023-08-24T13:34:18;8.68;;;3.20;;
56399;SDS011;42298;53.638;9.876;2023-08-24T13:36:44;10.80;;;3.92;;
56399;SDS011;42298;53.638;9.876;2023-08-24T13:39:09;7.93;;;3.50;;
56399;SDS011;42298;53.638;9.876;2023-08-24T13:41:35;7.95;;;3.42;;
56399;SDS011;42298;53.638;9.876;2023-08-24T13:44:01;12.15;;;3.67;;
56399;SDS011;42298;53.638;9.876;2023-08-24T13:46:26;8.02;;;3.53;;
56399;SDS011;42298;53.638;9.876;2023-08-24T13:48:53;11.02;;;3.45;;
56399;SDS011;42298;53.638;9.876;2023-08-24T13:51:18;8.10;;;3.60;;
56399;SDS011;42298;53.638;9.876;2023-08-24T13:53:44;9.18;;;3.10;;
56399;SDS011;42298;53.638;9.876;2023-08-24T13:56:09;6.57;;;3.20;;
56399;SDS011;42298;53.638;9.876;2023-08-24T13:58:34;7.82;;;3.03;;
56399;SDS011;42298;53.638;9.876;2023-08-24T14:01:00;6.30;;;3.17;;
56399;SDS011;42298;53.638;9.876;2023-08-24T14:03:28;5.22;;;3.08;;
56399;SDS011;42298;53.638;9.876;2023-08-24T14:05:58;11.57;;;2.97;;
56399;SDS011;42298;53.638;9.876;2023-08-24T14:08:23;5.90;;;2.90;;
56399;SDS011;42298;53.638;9.876;2023-08-24T14:10:49;10.18;;;3.30;;
56399;SDS011;42298;53.638;9.876;2023-08-24T14:13:16;7.68;;;3.10;;
56399;SDS011;42298;53.638;9.876;2023-08-24T14:15:41;10.60;;;3.50;;
56399;SDS011;42298;53.638;9.876;2023-08-24T14:18:06;9.13;;;3.00;;
56399;SDS011;42298;53.638;9.876;2023-08-24T14:20:32;7.75;;;2.75;;
56399;SDS011;42298;53.638;9.876;2023-08-24T14:22:58;8.05;;;2.83;;
56399;SDS011;42298;53.638;9.876;2023-08-24T14:25:23;7.07;;;3.00;;
56399;SDS011;42298;53.638;9.876;2023-08-24T14:27:48;7.22;;;2.60;;
56399;SDS011;42298;53.638;9.876;2023-08-24T14:30:14;5.85;;;2.65;;
56399;SDS011;42298;53.638;9.876;2023-08-24T14:32:39;8.35;;;2.55;;
56399;SDS011;42298;53.638;9.876;2023-08-24T14:35:04;8.75;;;2.80;;
56399;SDS011;42298;53.638;9.876;2023-08-24T14:37:30;5.28;;;2.30;;
56399;SDS011;42298;53.638;9.876;2023-08-24T14:39:55;6.63;;;2.70;;
56399;SDS011;42298;53.638;9.876;2023-08-24T14:42:21;6.00;;;2.42;;
56399;SDS011;42298;53.638;9.876;2023-08-24T14:44:46;7.90;;;3.00;;
56399;SDS011;42298;53.638;9.876;2023-08-24T14:47:12;5.32;;;2.50;;
56399;SDS011;42298;53.638;9.876;2023-08-24T14:49:37;4.85;;;2.70;;
56399;SDS011;42298;53.638;9.876;2023-08-24T14:52:02;6.90;;;3.03;;
56399;SDS011;42298;53.638;9.876;2023-08-24T14:54:28;4.97;;;2.70;;